Time;durP1;ratioP1;P1;durP2;ratioP2;P2;SDS_P1;SDS_P2;PMS_P1;PMS_P2;Temp;Humidity;BMP_temperature;BMP_pressure;BME280_temperature;BME280_humidity;BME280_pressure;Samples;Min_cycle;Max_cycle;Signal;HPM_P1;HPM_P2
2021/07/24 00:01:04;;;;;;;8.45;5.82;;;;;;;18.93;61.69;101277.22;4886881;28;120328;-81
2021/07/24 00:03:32;;;;;;;9.20;5.80;;;;;;;18.93;61.52;101286.31;4885877;28;119554;-81
2021/07/24 00:05:57;;;;;;;12.40;6.15;;;;;;;18.89;61.54;101294.09;4855471;28;119757;-80
2021/07/24 00:08:23;;;;;;;11.00;6.38;;;;;;;18.79;61.56;101280.88;4886641;28;119778;-81
2021/07/24 00:10:49;;;;;;;7.88;5.45;;;;;;;18.81;62.07;101293.03;4864106;28;119605;-83
2021/07/24 00:13:15;;;;;;;8.32;5.53;;;;;;;18.82;61.90;101291.00;4890794;28;119994;-80
2021/07/24 00:15:41;;;;;;;7.00;5.10;;;;;;;18.77;61.75;101283.38;4890593;28;119371;-80
2021/07/24 00:18:09;;;;;;;8.73;5.28;;;;;;;18.75;61.51;101289.44;4888535;28;119516;-83
2021/07/24 00:20:35;;;;;;;8.00;6.13;;;;;;;18.61;61.59;101270.84;4955721;22;120326;-76
2021/07/24 00:23:03;;;;;;;6.28;4.80;;;;;;;18.65;61.65;101279.75;4924493;28;119692;-75
2021/07/24 00:25:29;;;;;;;9.95;5.97;;;;;;;18.60;61.54;101289.53;4929669;28;122466;-75
2021/07/24 00:28:06;;;;;;;7.50;5.60;;;;;;;18.52;61.96;101287.69;4921973;28;120700;-75
2021/07/24 00:30:32;;;;;;;7.78;5.68;;;;;;;18.48;61.80;101287.16;4910822;28;119659;-76
2021/07/24 00:33:03;;;;;;;9.23;5.75;;;;;;;18.45;61.43;101288.09;4891202;28;121488;-75
2021/07/24 00:35:29;;;;;;;8.60;5.75;;;;;;;18.45;61.72;101285.31;4927855;28;120110;-76
2021/07/24 00:37:55;;;;;;;9.32;5.60;;;;;;;18.36;61.71;101284.25;4905734;28;119758;-75
2021/07/24 00:40:25;;;;;;;8.68;5.50;;;;;;;18.38;61.84;101290.06;4933420;28;119620;-75
2021/07/24 00:42:53;;;;;;;8.38;5.72;;;;;;;18.35;61.93;101291.06;4892208;28;121261;-75
2021/07/24 00:45:20;;;;;;;8.77;5.00;;;;;;;18.27;62.14;101284.41;4908517;28;120226;-75
2021/07/24 00:47:50;;;;;;;9.45;6.05;;;;;;;18.30;62.09;101288.22;4923038;28;119564;-76
2021/07/24 00:50:31;;;;;;;8.40;4.85;;;;;;;18.25;61.88;101289.69;4895170;28;121550;-76
2021/07/24 00:53:11;;;;;;;9.13;5.50;;;;;;;18.23;62.17;101289.44;4909443;28;122830;-76
2021/07/24 00:55:37;;;;;;;7.82;5.28;;;;;;;18.18;62.20;101278.25;4943132;28;123608;-76
2021/07/24 00:58:25;;;;;;;8.35;5.30;;;;;;;18.18;61.96;101281.78;4913616;28;119814;-76
2021/07/24 01:00:52;;;;;;;11.80;5.72;;;;;;;18.16;62.33;101284.28;4923877;28;119523;-75
2021/07/24 01:03:21;;;;;;;9.32;5.20;;;;;;;18.03;62.17;101267.25;4925117;28;119700;-75
2021/07/24 01:05:50;;;;;;;8.98;4.97;;;;;;;18.14;62.13;101280.47;4925255;28;120867;-77
2021/07/24 01:08:17;;;;;;;7.97;5.70;;;;;;;18.07;62.52;101271.34;4906690;28;119747;-75
2021/07/24 01:10:46;;;;;;;12.02;7.85;;;;;;;17.98;63.18;101262.38;4927835;28;119828;-76
2021/07/24 01:13:16;;;;;;;9.93;5.90;;;;;;;18.16;62.86;101286.31;4937976;28;125222;-76
2021/07/24 01:15:46;;;;;;;9.98;5.95;;;;;;;18.15;62.44;101282.75;4894202;28;119923;-76
2021/07/24 01:18:14;;;;;;;7.78;5.50;;;;;;;18.09;62.07;101281.94;4912799;28;120281;-76
2021/07/24 01:20:43;;;;;;;8.43;5.30;;;;;;;18.07;61.85;101278.91;4934011;28;119701;-76
2021/07/24 01:23:13;;;;;;;9.52;5.97;;;;;;;18.04;61.83;101279.88;4924592;28;119658;-76
2021/07/24 01:25:49;;;;;;;9.05;6.00;;;;;;;17.98;61.80;101279.03;4933027;28;120023;-75
2021/07/24 01:28:30;;;;;;;9.13;6.65;;;;;;;17.94;62.05;101273.69;4907140;28;120263;-76
2021/07/24 01:31:00;;;;;;;10.63;6.15;;;;;;;17.90;61.91;101261.28;4907511;28;119869;-75
2021/07/24 01:33:30;;;;;;;8.95;5.68;;;;;;;17.86;62.06;101271.84;4907707;28;119415;-76
2021/07/24 01:35:59;;;;;;;6.60;5.10;;;;;;;17.84;61.91;101277.13;4924682;28;120170;-75
2021/07/24 01:38:26;;;;;;;10.70;6.03;;;;;;;17.82;62.17;101268.50;4925756;28;119691;-75
2021/07/24 01:41:00;;;;;;;10.23;5.90;;;;;;;17.65;61.86;101246.84;4900962;28;120607;-75
2021/07/24 01:43:26;;;;;;;9.68;5.28;;;;;;;17.74;61.82;101262.59;4925245;28;120204;-75
2021/07/24 01:45:51;;;;;;;8.10;5.82;;;;;;;17.74;62.15;101260.63;4927186;28;122996;-75
2021/07/24 01:48:33;;;;;;;7.90;5.50;;;;;;;17.70;62.06;101262.81;4909550;28;119503;-76
2021/07/24 01:53:47;;;;;;;11.25;6.25;;;;;;;17.63;62.07;101252.09;4924301;28;119656;-76
2021/07/24 01:56:21;;;;;;;9.07;6.13;;;;;;;17.68;62.17;101267.31;4927284;28;119981;-76
2021/07/24 01:58:51;;;;;;;;;;;;;;;17.63;62.20;101256.91;4927280;28;119583;-75
2021/07/24 02:01:24;;;;;;;;;;;;;;;17.61;62.30;101262.94;4926317;28;120291;-77
2021/07/24 02:04:08;;;;;;;9.02;5.43;;;;;;;17.57;62.77;101251.28;4911639;28;119560;-76
2021/07/24 02:06:41;;;;;;;7.55;5.68;;;;;;;17.60;62.38;101263.41;4903278;28;122758;-76
2021/07/24 02:09:22;;;;;;;7.05;5.35;;;;;;;17.57;62.74;101267.94;4927940;28;119510;-77
2021/07/24 02:11:59;;;;;;;9.75;5.75;;;;;;;17.55;62.50;101259.34;4895884;28;119674;-75
2021/07/24 02:14:34;;;;;;;9.80;5.35;;;;;;;17.54;62.71;101260.59;4910350;28;120354;-75
2021/07/24 02:17:08;;;;;;;8.07;5.30;;;;;;;17.49;62.46;101256.47;4911426;28;119552;-76
2021/07/24 02:19:37;;;;;;;8.95;5.88;;;;;;;17.55;62.84;101262.09;4907779;28;119785;-75
2021/07/24 02:22:04;;;;;;;9.25;5.60;;;;;;;17.51;62.76;101264.31;4888968;28;119852;-75
2021/07/24 02:24:31;;;;;;;11.52;5.43;;;;;;;17.46;62.29;101256.69;4917914;28;119578;-75
2021/07/24 02:27:05;;;;;;;9.95;5.65;;;;;;;17.51;62.68;101267.09;4914864;28;120291;-75
2021/07/24 02:29:42;;;;;;;8.60;5.97;;;;;;;17.47;62.55;101258.19;4895338;28;120609;-75
2021/07/24 02:32:09;;;;;;;10.93;7.05;;;;;;;17.49;62.87;101264.78;4896190;28;119571;-75
2021/07/24 02:34:38;;;;;;;11.10;6.95;;;;;;;17.49;62.69;101267.56;4909179;28;120148;-75
2021/07/24 02:37:06;;;;;;;12.55;7.03;;;;;;;17.42;62.72;101254.09;4928811;28;119693;-75
2021/07/24 02:39:31;;;;;;;11.95;6.80;;;;;;;17.49;62.84;101264.03;4929792;28;119590;-75
2021/07/24 02:41:58;;;;;;;12.63;7.32;;;;;;;17.48;62.88;101266.03;4927485;28;120595;-76
2021/07/24 02:44:27;;;;;;;9.30;6.25;;;;;;;17.43;62.89;101252.84;4892491;28;125845;-75
2021/07/24 02:46:53;;;;;;;9.85;6.50;;;;;;;17.47;62.63;101260.97;4938961;28;120305;-76
2021/07/24 02:49:23;;;;;;;9.80;6.00;;;;;;;17.45;62.27;101258.69;4915370;28;122627;-76
2021/07/24 02:51:54;;;;;;;7.95;5.60;;;;;;;17.35;62.13;101239.91;4927524;28;119983;-76
2021/07/24 02:54:25;;;;;;;9.23;6.00;;;;;;;17.39;62.06;101246.00;4913460;28;119399;-76
2021/07/24 02:56:56;;;;;;;9.75;6.05;;;;;;;17.34;62.10;101244.69;4929536;28;120100;-76
2021/07/24 02:59:22;;;;;;;9.85;5.90;;;;;;;17.33;62.06;101243.16;4909874;28;127176;-76
2021/07/24 03:01:50;;;;;;;9.68;6.10;;;;;;;17.30;62.38;101240.59;4910203;28;121066;-75
2021/07/24 03:04:16;;;;;;;9.05;5.82;;;;;;;17.19;62.10;101222.53;4926688;28;119531;-75
2021/07/24 03:06:41;;;;;;;11.20;6.78;;;;;;;17.26;62.63;101238.00;4895544;28;119932;-75
2021/07/24 03:09:08;;;;;;;7.70;5.82;;;;;;;17.24;62.07;101234.94;4945356;28;119764;-75
2021/07/24 03:11:36;;;;;;;12.15;6.15;;;;;;;17.25;62.25;101221.84;4915877;28;119681;-76
2021/07/24 03:14:03;;;;;;;8.55;6.05;;;;;;;17.23;62.21;101229.88;4918746;28;122340;-75
2021/07/24 03:16:32;;;;;;;13.07;6.28;;;;;;;17.19;61.84;101227.31;4925750;28;119444;-77
2021/07/24 03:18:58;;;;;;;10.88;6.38;;;;;;;17.19;62.11;101235.66;4916422;28;120228;-75
2021/07/24 03:21:24;;;;;;;12.05;6.53;;;;;;;17.17;62.24;101232.59;4903220;28;121203;-75
2021/07/24 03:23:53;;;;;;;9.13;5.43;;;;;;;17.15;62.42;101226.78;4913366;28;119777;-75
2021/07/24 03:26:19;;;;;;;12.80;7.20;;;;;;;17.11;62.78;101217.91;4937974;28;120189;-76
2021/07/24 03:28:46;;;;;;;10.45;6.85;;;;;;;17.11;62.37;101226.97;4926700;28;119952;-76
2021/07/24 03:31:13;;;;;;;11.88;6.75;;;;;;;17.14;62.31;101222.47;4920584;28;119545;-75
2021/07/24 03:33:39;;;;;;;12.93;6.95;;;;;;;17.11;62.00;101215.88;4914523;28;122191;-75
2021/07/24 03:36:05;;;;;;;11.82;7.25;;;;;;;17.08;62.19;101214.09;4923366;28;120357;-75
2021/07/24 03:38:31;;;;;;;9.02;6.45;;;;;;;17.04;61.85;101205.22;4920902;28;119759;-75
2021/07/24 03:40:58;;;;;;;12.60;7.05;;;;;;;17.05;61.68;101217.81;4925028;28;120093;-75
2021/07/24 03:43:26;;;;;;;12.07;6.78;;;;;;;17.01;62.12;101208.91;4912439;28;119884;-75
2021/07/24 03:45:51;;;;;;;11.20;6.95;;;;;;;17.00;62.16;101209.41;4919449;28;119737;-76
2021/07/24 03:48:17;;;;;;;11.93;7.15;;;;;;;16.94;62.30;101205.81;4895555;28;119882;-76
2021/07/24 03:50:44;;;;;;;11.70;7.32;;;;;;;16.98;62.41;101207.13;4895935;28;119883;-75
2021/07/24 03:53:10;;;;;;;12.38;7.97;;;;;;;17.00;62.65;101204.63;4936555;28;120626;-75
2021/07/24 03:55:36;;;;;;;12.13;7.25;;;;;;;17.01;62.77;101211.69;4911324;28;119841;-76
2021/07/24 03:58:02;;;;;;;13.48;7.32;;;;;;;16.98;62.57;101196.03;4928635;28;123286;-75
2021/07/24 04:00:45;;;;;;;11.45;7.22;;;;;;;17.00;63.29;101192.78;4925684;28;119396;-76
2021/07/24 04:03:13;;;;;;;10.00;6.65;;;;;;;17.06;62.93;101193.66;4909753;28;120717;-75
2021/07/24 04:05:43;;;;;;;12.15;6.68;;;;;;;17.06;62.97;101191.63;4927057;28;120329;-76
2021/07/24 04:08:10;;;;;;;11.10;6.93;;;;;;;17.05;62.65;101186.56;4912899;28;121451;-75
2021/07/24 04:10:38;;;;;;;9.60;7.15;;;;;;;17.03;62.91;101186.28;4910904;28;120487;-76
2021/07/24 04:13:05;;;;;;;9.75;6.50;;;;;;;17.12;63.13;101195.22;4907694;28;120107;-76
2021/07/24 04:15:33;;;;;;;10.82;6.40;;;;;;;17.14;62.94;101186.44;4928736;28;119687;-76
2021/07/24 04:17:59;;;;;;;11.18;7.03;;;;;;;17.14;62.95;101180.88;4925931;28;119894;-76
2021/07/24 04:20:26;;;;;;;13.30;6.97;;;;;;;17.16;63.12;101181.16;4927990;28;120163;-75
2021/07/24 04:22:54;;;;;;;9.50;6.57;;;;;;;17.21;62.92;101182.47;4924709;28;119652;-75
2021/07/24 04:25:20;;;;;;;12.63;6.53;;;;;;;17.23;62.62;101180.75;4929016;28;119656;-75
2021/07/24 04:27:47;;;;;;;12.35;6.97;;;;;;;17.26;62.33;101177.00;4927583;28;119476;-75
2021/07/24 04:30:13;;;;;;;8.95;6.25;;;;;;;17.29;62.51;101183.63;4928262;28;119451;-75
2021/07/24 04:32:38;;;;;;;10.48;6.90;;;;;;;17.31;62.99;101172.81;4908128;28;121462;-75
2021/07/24 04:35:05;;;;;;;10.45;6.93;;;;;;;17.39;63.45;101176.69;4922035;28;119686;-76
2021/07/24 04:37:30;;;;;;;10.85;6.28;;;;;;;17.44;63.20;101170.44;4931089;28;119610;-76
2021/07/24 04:40:03;;;;;;;11.07;7.35;;;;;;;17.50;63.43;101166.47;4893578;28;122840;-75
2021/07/24 04:42:29;;;;;;;10.63;6.78;;;;;;;17.58;63.48;101168.84;4943252;28;120049;-75
2021/07/24 04:44:54;;;;;;;10.55;7.32;;;;;;;17.54;63.85;101155.19;4924026;28;119528;-76
2021/07/24 04:47:20;;;;;;;13.73;7.70;;;;;;;17.68;63.69;101168.22;4912425;28;120662;-76
2021/07/24 04:49:51;;;;;;;11.65;7.40;;;;;;;17.73;63.63;101167.50;4907356;28;119754;-76
2021/07/24 04:52:19;;;;;;;10.50;7.25;;;;;;;17.80;64.03;101174.66;4923666;28;121417;-75
2021/07/24 04:54:46;;;;;;;12.82;7.90;;;;;;;17.84;64.05;101175.19;4919005;28;119371;-76
2021/07/24 04:57:13;;;;;;;13.20;7.78;;;;;;;17.92;64.40;101181.84;4926149;28;122684;-75
2021/07/24 04:59:47;;;;;;;14.30;7.97;;;;;;;17.99;64.69;101175.88;4931413;28;119645;-75
2021/07/24 05:02:16;;;;;;;13.57;8.05;;;;;;;18.05;64.84;101179.44;4921535;28;119329;-75
2021/07/24 05:04:50;;;;;;;17.60;10.82;;;;;;;18.18;65.61;101178.28;4928104;28;119821;-76
2021/07/24 05:07:19;;;;;;;16.92;9.23;;;;;;;18.28;65.69;101185.97;4906362;28;121903;-75
2021/07/24 05:09:46;;;;;;;15.73;8.88;;;;;;;18.36;65.60;101180.72;4920717;28;119511;-75
2021/07/24 05:12:12;;;;;;;20.98;11.27;;;;;;;18.47;66.04;101183.59;4909447;28;121881;-76
2021/07/24 05:14:40;;;;;;;20.08;11.75;;;;;;;18.57;66.34;101184.19;4920759;28;120775;-75
2021/07/24 05:17:07;;;;;;;19.55;11.43;;;;;;;18.69;66.35;101180.25;4926023;28;119572;-76
2021/07/24 05:19:44;;;;;;;20.40;12.57;;;;;;;18.80;66.71;101180.34;4911623;28;120708;-76
2021/07/24 05:22:12;;;;;;;22.55;12.85;;;;;;;18.92;66.64;101179.13;4915483;28;120123;-77
2021/07/24 05:24:43;;;;;;;19.08;11.90;;;;;;;19.05;66.83;101175.16;4910515;28;119532;-75
2021/07/24 05:27:11;;;;;;;20.85;12.15;;;;;;;19.12;66.60;101177.47;4910299;28;120878;-77
2021/07/24 05:29:39;;;;;;;20.48;11.63;;;;;;;19.23;66.57;101171.97;4910220;28;119631;-75
2021/07/24 05:32:08;;;;;;;17.52;11.23;;;;;;;19.32;66.57;101178.06;4926823;28;120102;-75
2021/07/24 05:34:34;;;;;;;17.90;11.55;;;;;;;19.47;66.71;101180.69;4923744;28;121331;-75
2021/07/24 05:36:59;;;;;;;17.05;10.55;;;;;;;19.55;66.56;101176.16;4885391;28;121105;-75
2021/07/24 05:39:25;;;;;;;18.95;11.93;;;;;;;19.55;66.16;101165.03;4926134;28;121503;-75
2021/07/24 05:41:53;;;;;;;19.70;10.68;;;;;;;19.69;66.26;101176.47;4914655;28;120388;-75
2021/07/24 05:44:20;;;;;;;18.35;10.50;;;;;;;19.73;65.73;101186.09;4926033;28;119520;-75
2021/07/24 05:46:46;;;;;;;16.30;10.43;;;;;;;19.82;65.70;101187.88;4907284;28;120368;-76
2021/07/24 05:49:12;;;;;;;15.30;9.45;;;;;;;19.83;65.43;101192.19;4893661;28;120396;-76
2021/07/24 05:51:39;;;;;;;14.35;9.90;;;;;;;19.89;65.31;101190.97;4931416;28;119739;-76
2021/07/24 05:54:10;;;;;;;14.90;9.07;;;;;;;19.99;65.13;101199.81;4938294;28;123110;-75
2021/07/24 05:56:37;;;;;;;14.43;8.73;;;;;;;20.04;65.18;101196.28;4918278;28;120316;-75
2021/07/24 05:59:03;;;;;;;15.52;8.90;;;;;;;20.13;64.95;101201.63;4928403;28;119401;-76
2021/07/24 06:01:29;;;;;;;16.20;8.88;;;;;;;20.17;64.82;101190.25;4896702;28;120353;-75
2021/07/24 06:03:59;;;;;;;13.32;8.43;;;;;;;20.24;64.87;101198.84;4918489;28;119791;-76
2021/07/24 06:06:25;;;;;;;17.35;8.95;;;;;;;20.27;64.99;101199.84;4908379;28;121889;-75
2021/07/24 06:08:51;;;;;;;14.55;8.15;;;;;;;20.40;64.81;101196.59;4929551;28;119915;-76
2021/07/24 06:11:17;;;;;;;11.07;7.70;;;;;;;20.45;64.58;101207.00;4927410;28;119982;-76
2021/07/24 06:13:42;;;;;;;13.05;7.22;;;;;;;20.50;64.33;101195.84;4927983;28;119748;-76
2021/07/24 06:16:09;;;;;;;10.25;7.43;;;;;;;20.58;64.39;101200.88;4923435;28;119731;-77
2021/07/24 06:18:35;;;;;;;12.05;7.40;;;;;;;20.63;63.89;101191.78;4930063;28;119946;-76
2021/07/24 06:21:02;;;;;;;11.30;7.00;;;;;;;20.66;63.96;101197.09;4980295;22;122321;-82
2021/07/24 06:23:28;;;;;;;12.55;7.50;;;;;;;20.73;64.17;101204.94;4911501;28;119653;-82
2021/07/24 06:25:53;;;;;;;12.43;7.10;;;;;;;20.77;64.04;101202.66;4913138;28;119764;-82
2021/07/24 06:28:23;;;;;;;11.45;7.28;;;;;;;20.83;63.99;101211.03;4909083;28;121112;-80
2021/07/24 06:30:49;;;;;;;13.10;7.60;;;;;;;20.85;64.37;101202.91;4911351;28;119756;-80
2021/07/24 06:33:15;;;;;;;11.23;7.40;;;;;;;20.89;63.81;101203.41;4910506;28;120060;-81
2021/07/24 06:35:40;;;;;;;11.02;7.32;;;;;;;20.95;63.90;101198.56;4893199;28;119884;-81
2021/07/24 06:38:06;;;;;;;10.30;7.43;;;;;;;21.02;63.49;101202.84;4909919;28;121193;-82
2021/07/24 06:40:31;;;;;;;14.52;8.52;;;;;;;21.06;63.62;101201.34;4908016;28;120133;-80
2021/07/24 06:42:57;;;;;;;11.52;7.78;;;;;;;21.12;63.42;101201.31;4892113;28;119830;-80
2021/07/24 06:45:25;;;;;;;11.70;7.63;;;;;;;21.15;63.83;101203.09;4905920;28;119675;-82
2021/07/24 06:47:51;;;;;;;12.73;8.43;;;;;;;21.19;64.12;101195.22;4910862;28;120775;-80
2021/07/24 06:50:16;;;;;;;12.70;7.97;;;;;;;21.23;63.88;101203.31;4909825;28;119889;-84
2021/07/24 06:52:44;;;;;;;13.63;7.47;;;;;;;21.24;63.75;101179.75;4909607;28;119957;-80
2021/07/24 06:55:12;;;;;;;15.40;8.63;;;;;;;21.34;63.65;101186.56;4881994;28;120723;-80
2021/07/24 06:57:39;;;;;;;17.80;8.63;;;;;;;21.39;63.86;101178.19;4906426;28;119923;-80
2021/07/24 07:00:06;;;;;;;16.55;8.90;;;;;;;21.43;63.86;101173.06;4908466;28;120749;-82
2021/07/24 07:02:31;;;;;;;13.95;8.45;;;;;;;21.47;63.60;101172.03;4909087;28;120095;-80
2021/07/24 07:04:59;;;;;;;13.60;7.80;;;;;;;21.56;63.23;101182.94;4906292;28;120224;-84
2021/07/24 07:07:27;;;;;;;11.45;7.68;;;;;;;21.58;63.26;101183.94;4907547;28;121565;-82
2021/07/24 07:09:52;;;;;;;11.50;7.85;;;;;;;21.60;63.30;101173.00;4896167;28;119296;-80
2021/07/24 07:12:21;;;;;;;10.15;7.40;;;;;;;21.65;63.69;101175.00;4911105;28;122488;-81
2021/07/24 07:14:52;;;;;;;12.60;7.60;;;;;;;21.59;63.25;101149.16;4910992;28;119738;-81
2021/07/24 07:17:18;;;;;;;11.75;8.13;;;;;;;21.74;63.12;101169.09;4892066;28;120858;-80
2021/07/24 07:19:43;;;;;;;12.45;7.38;;;;;;;21.76;62.96;101154.63;4903967;28;121333;-83
2021/07/24 07:22:09;;;;;;;12.00;7.95;;;;;;;21.76;63.08;101149.03;4906395;28;126404;-81
2021/07/24 07:24:35;;;;;;;12.50;7.45;;;;;;;21.86;63.20;101158.63;4893856;28;120789;-80
2021/07/24 07:27:01;;;;;;;12.18;7.75;;;;;;;21.92;62.72;101148.19;4909805;28;121837;-80
2021/07/24 07:29:29;;;;;;;13.85;7.80;;;;;;;21.98;62.43;101153.72;4911487;28;120147;-80
2021/07/24 07:31:55;;;;;;;14.18;8.10;;;;;;;22.04;62.48;101152.44;4897094;28;120447;-80
2021/07/24 07:34:22;;;;;;;12.65;8.05;;;;;;;22.09;62.13;101152.91;4878670;28;120685;-81
2021/07/24 07:36:48;;;;;;;15.07;8.07;;;;;;;22.13;62.50;101150.59;4908632;28;120531;-81
2021/07/24 07:39:14;;;;;;;12.10;8.23;;;;;;;22.14;62.14;101141.69;4907717;28;121157;-80
2021/07/24 07:41:40;;;;;;;11.43;7.53;;;;;;;22.23;62.28;101151.78;4909436;28;120875;-84
2021/07/24 07:44:10;;;;;;;13.13;7.55;;;;;;;22.29;61.98;101147.69;4909121;28;120331;-83
2021/07/24 07:46:36;;;;;;;11.60;7.50;;;;;;;22.33;61.88;101142.56;4893314;28;122161;-81
2021/07/24 07:49:04;;;;;;;14.38;7.47;;;;;;;22.38;61.79;101140.97;4910634;28;121013;-79
2021/07/24 07:51:30;;;;;;;11.93;7.65;;;;;;;22.46;61.34;101136.31;4882762;28;120944;-81
2021/07/24 07:53:56;;;;;;;14.57;8.32;;;;;;;22.48;61.29;101121.84;4890773;28;121335;-80
2021/07/24 07:56:21;;;;;;;15.23;7.53;;;;;;;22.62;61.35;101134.66;4908651;28;121543;-80
2021/07/24 07:58:47;;;;;;;10.48;7.25;;;;;;;22.71;61.52;101139.13;4894035;28;124599;-80
2021/07/24 08:01:13;;;;;;;13.73;8.40;;;;;;;22.81;60.84;101126.31;4889586;28;121506;-80
2021/07/24 08:03:46;;;;;;;9.80;7.45;;;;;;;22.90;60.40;101117.59;4882354;28;122247;-82
2021/07/24 08:06:15;;;;;;;12.90;7.38;;;;;;;22.99;60.23;101108.88;4909022;28;121673;-80
2021/07/24 08:08:41;;;;;;;12.57;7.38;;;;;;;23.12;59.81;101103.34;4888021;28;121692;-81
2021/07/24 08:11:10;;;;;;;11.70;7.30;;;;;;;23.20;59.68;101101.47;4889046;28;121564;-80
2021/07/24 08:13:35;;;;;;;13.55;7.90;;;;;;;23.35;59.47;101100.25;4908756;28;122516;-80
2021/07/24 08:16:01;;;;;;;14.52;7.68;;;;;;;23.45;58.85;101107.00;4908568;28;122959;-80
2021/07/24 08:18:26;;;;;;;11.52;7.35;;;;;;;23.56;58.58;101110.41;4887964;28;122052;-82
2021/07/24 08:20:52;;;;;;;13.02;7.55;;;;;;;23.62;58.26;101107.53;4908436;28;126697;-81
2021/07/24 08:23:18;;;;;;;11.82;7.40;;;;;;;23.69;57.54;101104.13;4873628;28;121670;-81
2021/07/24 08:25:44;;;;;;;12.23;7.70;;;;;;;23.76;57.24;101099.94;4896782;28;122351;-82
2021/07/24 08:28:10;;;;;;;13.75;7.55;;;;;;;23.83;57.14;101099.31;4891880;28;121965;-80
2021/07/24 08:30:36;;;;;;;12.25;7.75;;;;;;;23.91;57.65;101096.66;4906023;28;122277;-81
2021/07/24 08:33:03;;;;;;;11.52;7.70;;;;;;;23.99;56.80;101092.69;4904645;28;121824;-80
2021/07/24 08:35:29;;;;;;;11.90;7.88;;;;;;;24.09;56.52;101093.03;4895179;28;121934;-82
2021/07/24 08:37:57;;;;;;;12.88;7.97;;;;;;;24.22;56.17;101090.25;4890194;28;121913;-83
2021/07/24 08:40:22;;;;;;;12.80;8.45;;;;;;;24.30;56.28;101082.00;4892753;28;121879;-84
2021/07/24 08:42:48;;;;;;;10.98;7.80;;;;;;;24.34;55.85;101074.00;4873765;28;122959;-80
2021/07/24 08:45:17;;;;;;;13.45;8.23;;;;;;;24.40;55.67;101089.47;4898073;28;121841;-80
2021/07/24 08:47:43;;;;;;;15.38;8.98;;;;;;;24.48;56.13;101089.56;4895795;28;122270;-83
2021/07/24 08:50:13;;;;;;;17.35;9.30;;;;;;;24.56;55.11;101089.66;4907584;28;121978;-83
2021/07/24 08:52:39;;;;;;;12.15;7.88;;;;;;;24.64;54.75;101085.69;4901357;28;121919;-80
2021/07/24 08:55:07;;;;;;;17.73;9.07;;;;;;;24.73;53.39;101087.31;4907308;28;121848;-80
2021/07/24 08:57:44;;;;;;;14.15;9.20;;;;;;;24.81;54.15;101079.72;4896770;28;122688;-81
2021/07/24 09:00:18;;;;;;;18.25;10.02;;;;;;;24.92;53.63;101079.53;4890660;28;121884;-81
2021/07/24 09:02:47;;;;;;;16.20;8.93;;;;;;;24.98;52.92;101077.34;4908813;28;121829;-80
2021/07/24 09:05:14;;;;;;;15.48;9.45;;;;;;;25.01;53.00;101069.91;4907344;28;122909;-80
2021/07/24 09:07:46;;;;;;;15.52;9.15;;;;;;;25.03;52.06;101073.69;4887249;28;122213;-80
2021/07/24 09:10:12;;;;;;;13.10;7.50;;;;;;;25.04;52.28;101069.59;4880056;28;122726;-84
2021/07/24 09:12:43;;;;;;;14.35;8.27;;;;;;;25.08;51.94;101072.09;4897080;28;122076;-81
2021/07/24 09:15:11;;;;;;;13.77;8.25;;;;;;;25.11;51.39;101064.63;4883341;28;122155;-80
2021/07/24 09:17:36;;;;;;;13.63;7.88;;;;;;;25.12;51.75;101060.53;4889464;28;122528;-82
2021/07/24 09:20:03;;;;;;;12.70;7.43;;;;;;;25.19;51.59;101057.03;4891737;28;122256;-83
2021/07/24 09:22:35;;;;;;;12.80;7.57;;;;;;;25.25;51.86;101052.06;4890402;28;122432;-80
2021/07/24 09:25:07;;;;;;;11.32;7.82;;;;;;;25.33;50.78;101053.66;4876254;28;124914;-81
2021/07/24 09:27:34;;;;;;;14.93;8.00;;;;;;;25.35;50.19;101053.13;4895618;28;123087;-81
2021/07/24 09:30:01;;;;;;;11.85;8.07;;;;;;;25.37;49.83;101053.31;4903545;28;122414;-81
2021/07/24 09:32:28;;;;;;;13.40;7.85;;;;;;;25.35;49.88;101053.13;4903830;28;122271;-82
2021/07/24 09:34:53;;;;;;;16.27;9.43;;;;;;;25.35;49.27;101055.91;4906669;28;121976;-82
2021/07/24 09:37:24;;;;;;;14.40;8.77;;;;;;;25.40;48.90;101043.81;4893111;28;121924;-81
2021/07/24 09:39:51;;;;;;;16.20;9.10;;;;;;;25.44;48.43;101055.44;4906245;28;122066;-81
2021/07/24 09:42:20;;;;;;;13.68;8.98;;;;;;;25.46;48.48;101044.41;4903111;28;121983;-80
2021/07/24 09:44:49;;;;;;;17.08;9.43;;;;;;;25.45;48.00;101037.28;4894316;28;122187;-80
2021/07/24 09:47:29;;;;;;;14.77;8.35;;;;;;;25.50;48.35;101033.59;4893131;28;121925;-81
2021/07/24 09:50:11;;;;;;;13.73;8.40;;;;;;;25.53;49.05;101040.91;4901503;28;122030;-81
2021/07/24 09:52:48;;;;;;;16.70;8.82;;;;;;;25.51;47.29;101035.09;4897076;28;127191;-81
2021/07/24 09:55:23;;;;;;;14.38;9.40;;;;;;;25.50;47.85;101032.84;4875134;28;122558;-80
2021/07/24 09:57:57;;;;;;;16.25;9.27;;;;;;;25.42;47.84;101032.78;4888168;28;123181;-81
2021/07/24 10:00:32;;;;;;;16.40;8.68;;;;;;;25.39;47.90;101029.00;4907577;28;122241;-80
2021/07/24 10:03:08;;;;;;;15.07;8.43;;;;;;;25.36;47.84;101037.78;4894533;28;122378;-82
2021/07/24 10:05:44;;;;;;;13.70;8.57;;;;;;;25.34;48.34;101040.38;4892908;28;123861;-84
2021/07/24 10:08:11;;;;;;;11.57;7.28;;;;;;;25.32;48.28;101040.16;4894534;28;122116;-83
2021/07/24 10:10:41;;;;;;;11.00;7.25;;;;;;;25.26;47.19;101017.81;4898260;28;122537;-83
2021/07/24 10:13:12;;;;;;;11.23;6.33;;;;;;;25.27;46.41;101022.13;4893906;28;122747;-80
2021/07/24 10:15:40;;;;;;;10.82;6.18;;;;;;;25.30;45.86;101021.03;4891894;28;122035;-85
2021/07/24 10:18:08;;;;;;;10.55;5.75;;;;;;;25.28;47.34;101008.84;4875900;28;121985;-81
2021/07/24 10:20:35;;;;;;;9.45;5.80;;;;;;;25.32;46.42;101003.66;4900462;28;122003;-80
2021/07/24 10:23:01;;;;;;;11.65;5.25;;;;;;;25.28;45.68;100998.38;4875047;28;123071;-82
2021/07/24 10:25:27;;;;;;;12.07;5.63;;;;;;;25.25;46.07;100991.03;4894540;28;122141;-82
2021/07/24 10:27:56;;;;;;;9.48;4.93;;;;;;;25.29;45.34;101007.53;4893487;28;122774;-82
2021/07/24 10:30:29;;;;;;;6.80;5.22;;;;;;;25.23;44.81;101001.31;4895848;28;122444;-80
2021/07/24 10:32:58;;;;;;;8.88;4.85;;;;;;;25.19;45.05;101010.06;4894655;28;122798;-84
2021/07/24 10:35:40;;;;;;;8.07;5.10;;;;;;;25.18;45.53;101014.19;4887926;28;122053;-81
2021/07/24 10:38:28;;;;;;;9.73;5.65;;;;;;;25.15;45.22;101009.66;4893448;28;123354;-80
2021/07/24 10:41:23;;;;;;;9.00;5.43;;;;;;;25.21;47.04;101003.91;4893640;28;122025;-81
2021/07/24 10:44:36;;;;;;;8.07;4.70;;;;;;;25.32;46.77;101012.84;4880401;28;123857;-80
2021/07/24 10:47:02;;;;;;;9.00;5.15;;;;;;;25.33;45.72;101014.34;4896880;28;122235;-81
2021/07/24 10:49:33;;;;;;;7.95;5.38;;;;;;;25.36;46.64;101018.13;4902377;28;124737;-80
2021/07/24 10:52:01;;;;;;;9.20;5.30;;;;;;;25.33;46.57;101008.75;4899174;28;122007;-81
2021/07/24 10:54:30;;;;;;;8.32;5.35;;;;;;;25.31;46.69;101013.38;4880781;28;121836;-81
2021/07/24 10:56:56;;;;;;;11.00;5.97;;;;;;;25.28;47.16;101006.03;4897802;28;121842;-81
2021/07/24 10:59:27;;;;;;;9.18;5.72;;;;;;;25.28;47.45;101011.66;4897507;28;122085;-82
2021/07/24 11:01:58;;;;;;;8.60;5.30;;;;;;;25.23;47.55;101004.13;4889861;28;122951;-81
2021/07/24 11:04:36;;;;;;;8.23;4.68;;;;;;;25.19;47.13;101006.53;4899495;28;122178;-82
2021/07/24 11:07:16;;;;;;;8.50;5.05;;;;;;;25.18;47.49;101007.81;4887323;28;123994;-80
2021/07/24 11:09:45;;;;;;;9.23;5.10;;;;;;;25.23;47.37;101012.53;4895159;28;121518;-81
2021/07/24 11:12:17;;;;;;;9.15;5.13;;;;;;;25.24;47.19;101003.56;4898739;28;122142;-82
2021/07/24 11:14:50;;;;;;;8.95;5.50;;;;;;;25.26;47.89;101003.03;4898514;28;122588;-82
2021/07/24 11:17:19;;;;;;;8.98;6.13;;;;;;;25.25;47.33;101004.31;4896993;28;121718;-80
2021/07/24 11:20:08;;;;;;;7.95;5.22;;;;;;;25.27;48.00;100990.50;4876399;28;123553;-81
2021/07/24 11:22:37;;;;;;;9.35;5.15;;;;;;;25.26;48.08;100994.59;4896474;28;122295;-80